Tatitlek, AK (99677)

1:56 PM AKDT on August 27, 2015 (GMT -0800)
Valdez | | Change Station
CLOSE
Current Station
Airport
Location: Valdez Airport,
Elevation: 121 ft
Nearby Weather Stations
Active Advisory: High Wind Warning Active Notice: Record Report

Elev 121 ft 61.13 °N, 146.25 °W | Updated 20 minutes ago

Mostly Cloudy
Mostly Cloudy
57 °F
Feels Like 57 °F
N
0
Wind Variable Wind from North

Today
High -- | Low -- °F
--% Chance of Precip.
Yesterday
High -- | Low -- °F
Precip. -- in
6:27 AM 9:10 PM
Waxing Gibbous, 95% visible
Pressure 29.57 in
Visibility 10.0 miles
Clouds Few 100 ft
Mostly Cloudy 5500 ft
Mostly Cloudy 10000 ft
Dew Point 50 °F
Humidity 77%
Rainfall 0.34 in
Snow Depth Not available.
UV 3 out of 12
Pollen Not available.
Air Quality Not available.
Flu Activity Not available.
METAR PAVD 272136Z 00000KT 10SM FEW001 BKN055 BKN100 14/10 A2957 RMK AO1 2047Z WEA: NONE RAE20 TWR WND 07008KT
Pressure 29.57 in
Visibility 10.0 miles
Clouds Few 100 ft
Mostly Cloudy 5500 ft
Mostly Cloudy 10000 ft
Dew Point 50 °F
Humidity 77%
Rainfall 0.34 in
Snow Depth Not available.
UV 3 out of 12
Pollen Not available.
Air Quality Not available.
Flu Activity Not available.
METAR PAVD 272136Z 00000KT 10SM FEW001 BKN055 BKN100 14/10 A2957 RMK AO1 2047Z WEA: NONE RAE20 TWR WND 07008KT

10-Day Weather Forecast

×

Almanac

Astronomy

Aug. 27, 2015 Rise Set
Actual Time
Civil Twilight
Nautical Twilight
Astronomical Twilight
Moon
Length of Visible Light
Length of Day
Tomorrow will be .
, % of the Moon is Illuminated

Today's Extremes

State Highs State Lows

Community

WunderPhotos

Upload Photos

1,850,238 photos uploaded!

WunderBlogs® & News

Nearby

Air Quality

  Air Quality AQ Index Pollutant
Not available.

Snow Depth

Station Depth Elevation

Earthquake Activity

City Distance Mag. Time & Date
Minimum magnitude displayed is 2.5.

Coastal Water Temperatures

Place Temperature

Stations

Nearby Weather Stations

Station Location Temp. Windchill Dew Point Humidity Wind Precip. Elev Updated Type
                   
High Wind Warning
Statement as of 9:21 AM AKDT on August 27, 2015

... High Wind Warning in effect from 10 PM this evening to 10 am
akdt Friday for Whittier and Seward...

The National Weather Service in Anchorage has issued a High Wind
Warning... which is in effect from 10 PM this evening to 10 am
akdt Friday.

* Location... Seward and Whittier.

* Wind... Seward... north winds 35 to 50 mph with gusts to 60 mph.
Whittier... west winds 35 to 50 mph with gusts to 65 mph.

* Timing... winds will rapidly increase Thursday evening and peak
late Thursday night through Friday morning.

* Impacts... travel may be difficult. Trees and power lines may be
blown over. Loose debris can be moved and damage property.

Precautionary/preparedness actions...

A High Wind Warning means a hazardous high wind event is expected
or occurring. People are urged to secure loose objects that could
be blown around or damaged by the wind.